Cohoctah, Michigan
Current Conditions -  °F | °C
As of 9:34 PM on Wednesday 17 Dec 2014 (Local Time) from KOZW Reporting Station
Overcast Overcast  
Wind Chill: 17°   Ceiling: 2600
Heat Index: 27°   Visibility: 10mi
Dew Point: 20°   Wind: 9mph
Humidity: 75%   Direction: 270°W
Pressure: 30.13"   Gusts: NA
Location:  42.76°N, 83.95°W
Report Text: KOZW 180234Z AUTO 27008KT 10SM BKN026 OVC032 M03/M07 A3013 RMK AO2 T10301068
Loading
Personal Weather Stations






























Interactive Weather Map New forecast layout! Learn more

10-Day Weather Forecast

Advertisements
Track Severe Weather on mobile